createdAt,value
2023-04-14T00:02:08.242Z,4.87
2023-04-14T00:04:35.236Z,4.91
2023-04-14T00:07:02.144Z,4.74
2023-04-14T00:09:28.890Z,4.66
2023-04-14T00:11:57.525Z,4.61
2023-04-14T00:14:24.292Z,4.45
2023-04-14T00:16:51.064Z,4.36
2023-04-14T00:19:17.763Z,4.43
2023-04-14T00:21:44.490Z,4.43
2023-04-14T00:24:11.225Z,4.47
2023-04-14T00:26:38.036Z,4.66
2023-04-14T00:29:04.879Z,4.91
2023-04-14T00:31:31.688Z,4.98
2023-04-14T00:34:00.414Z,4.95
2023-04-14T00:36:27.233Z,4.84
2023-04-14T00:38:53.955Z,4.58
2023-04-14T00:41:20.719Z,4.45
2023-04-14T00:43:47.455Z,4.49
2023-04-14T00:46:17.491Z,4.48
2023-04-14T00:48:44.574Z,4.45
2023-04-14T00:51:12.029Z,4.48
2023-04-14T00:53:41.099Z,4.34
2023-04-14T00:56:08.337Z,4.18
2023-04-14T00:58:35.708Z,4.11
2023-04-14T01:01:02.929Z,3.94
2023-04-14T01:03:29.908Z,3.84
2023-04-14T01:05:58.303Z,3.89
2023-04-14T01:08:25.890Z,3.80
2023-04-14T01:11:17.414Z,3.79
2023-04-14T01:14:22.098Z,3.63
2023-04-14T01:16:51.235Z,3.63
2023-04-14T01:19:34.154Z,3.73
2023-04-14T01:22:06.001Z,3.79
2023-04-14T01:24:42.102Z,3.77
2023-04-14T01:27:41.049Z,3.60
2023-04-14T01:30:30.228Z,3.52
2023-04-14T01:32:59.957Z,3.56
2023-04-14T01:35:40.020Z,3.62
2023-04-14T01:38:12.661Z,3.75
2023-04-14T01:40:42.237Z,3.79
2023-04-14T01:43:11.752Z,3.92
2023-04-14T01:45:43.355Z,3.92
2023-04-14T01:48:11.875Z,3.91
2023-04-14T01:50:42.116Z,3.86
2023-04-14T01:53:11.229Z,3.91
2023-04-14T01:55:40.228Z,3.92
2023-04-14T01:58:09.497Z,4.01
2023-04-14T02:00:38.616Z,4.16
2023-04-14T02:03:06.926Z,4.02
2023-04-14T02:05:37.253Z,4.13
2023-04-14T02:08:07.732Z,3.98
2023-04-14T02:10:38.172Z,4.00
2023-04-14T02:13:05.811Z,3.91
2023-04-14T02:15:33.442Z,3.88
2023-04-14T02:18:02.426Z,3.80
2023-04-14T02:20:29.750Z,3.79
2023-04-14T02:22:56.627Z,3.49
2023-04-14T02:25:29.618Z,3.37
2023-04-14T02:28:00.461Z,3.24
2023-04-14T02:30:33.274Z,3.00
2023-04-14T02:33:07.224Z,3.09
2023-04-14T02:35:44.673Z,3.29
2023-04-14T02:38:19.689Z,3.47
2023-04-14T02:40:46.786Z,3.54
2023-04-14T02:43:20.653Z,3.55
2023-04-14T02:45:50.978Z,3.61
2023-04-14T02:48:19.326Z,3.46
2023-04-14T02:50:50.538Z,3.32
2023-04-14T02:53:22.733Z,3.00
2023-04-14T02:55:52.851Z,3.06
2023-04-14T02:58:21.631Z,2.95
2023-04-14T03:00:50.222Z,3.02
2023-04-14T03:03:18.760Z,3.09
2023-04-14T03:05:47.242Z,3.15
2023-04-14T03:08:16.073Z,3.07
2023-04-14T03:10:48.442Z,2.98
2023-04-14T03:13:18.616Z,2.95
2023-04-14T03:15:46.235Z,2.65
2023-04-14T03:18:14.722Z,2.80
2023-04-14T03:20:43.635Z,3.27
2023-04-14T03:23:12.598Z,3.44
2023-04-14T03:25:47.544Z,3.40
2023-04-14T03:28:24.618Z,3.31
2023-04-14T03:30:54.606Z,3.14
2023-04-14T03:33:29.283Z,2.99
2023-04-14T03:35:58.733Z,2.98
2023-04-14T03:38:28.510Z,3.03
2023-04-14T03:41:00.130Z,3.16
2023-04-14T03:43:28.882Z,3.15
2023-04-14T03:46:01.456Z,3.21
2023-04-14T03:48:34.243Z,2.96
2023-04-14T03:51:04.210Z,2.81
2023-04-14T03:53:35.002Z,2.72
2023-04-14T03:56:03.614Z,2.75
2023-04-14T03:58:31.401Z,2.91
2023-04-14T04:00:59.727Z,2.88
2023-04-14T04:03:27.395Z,2.99
2023-04-14T04:05:54.976Z,3.14
2023-04-14T04:08:23.972Z,3.25
2023-04-14T04:10:52.479Z,3.13
2023-04-14T04:13:20.938Z,2.84
2023-04-14T04:15:50.061Z,2.78
2023-04-14T04:18:18.340Z,2.67
2023-04-14T04:20:46.723Z,2.64
2023-04-14T04:23:17.054Z,2.62
2023-04-14T04:25:44.588Z,2.36
2023-04-14T04:28:25.621Z,2.12
2023-04-14T04:30:53.525Z,2.10
2023-04-14T04:33:21.827Z,2.44
2023-04-14T04:35:49.770Z,2.57
2023-04-14T04:38:16.882Z,2.32
2023-04-14T04:40:45.654Z,2.29
2023-04-14T04:43:20.991Z,2.28
2023-04-14T04:46:09.544Z,2.08
2023-04-14T04:48:36.497Z,2.19
2023-04-14T04:51:05.586Z,2.07
2023-04-14T04:53:32.317Z,2.05
2023-04-14T04:55:59.050Z,2.14
2023-04-14T04:58:25.937Z,2.25
2023-04-14T05:00:54.599Z,2.56
2023-04-14T05:03:21.366Z,2.67
2023-04-14T05:05:48.090Z,2.72
2023-04-14T05:08:15.307Z,2.71
2023-04-14T05:10:42.398Z,2.68
2023-04-14T05:13:09.125Z,2.83
2023-04-14T05:15:35.968Z,2.82
2023-04-14T05:18:02.850Z,3.03
2023-04-14T05:20:29.648Z,2.94
2023-04-14T05:22:56.453Z,2.84
2023-04-14T05:25:23.145Z,2.89
2023-04-14T05:27:49.859Z,2.83
2023-04-14T05:30:16.698Z,2.80
2023-04-14T05:32:44.024Z,2.88
2023-04-14T05:35:10.809Z,2.93
2023-04-14T05:37:37.523Z,2.50
2023-04-14T05:40:04.604Z,2.58
2023-04-14T05:42:31.748Z,2.50
2023-04-14T05:44:58.578Z,2.39
2023-04-14T05:47:25.507Z,2.52
2023-04-14T05:49:52.227Z,2.76
2023-04-14T05:52:19.006Z,2.89
2023-04-14T05:54:45.870Z,3.06
2023-04-14T05:57:12.680Z,3.32
2023-04-14T05:59:39.399Z,3.45
2023-04-14T06:02:07.564Z,3.73
2023-04-14T06:04:34.584Z,3.77
2023-04-14T06:07:02.981Z,3.80
2023-04-14T06:09:29.704Z,3.86
2023-04-14T06:11:56.858Z,3.86
2023-04-14T06:14:23.911Z,4.00
2023-04-14T06:16:51.288Z,4.08
2023-04-14T06:19:21.241Z,4.07
2023-04-14T06:21:50.501Z,3.98
2023-04-14T06:24:21.468Z,4.07
2023-04-14T06:26:49.437Z,4.28
2023-04-14T06:29:16.325Z,4.54
2023-04-14T06:31:43.664Z,4.55
2023-04-14T06:34:10.428Z,4.56
2023-04-14T06:36:37.353Z,4.75
2023-04-14T06:39:05.147Z,4.99
2023-04-14T06:41:31.812Z,5.72
2023-04-14T06:43:58.474Z,6.03
2023-04-14T06:46:25.265Z,6.85
2023-04-14T06:48:52.024Z,7.08
2023-04-14T06:51:18.650Z,7.67
2023-04-14T06:53:45.554Z,7.88
2023-04-14T06:56:12.399Z,7.84
2023-04-14T06:58:40.436Z,8.13
2023-04-14T07:01:07.240Z,8.81
2023-04-14T07:03:35.027Z,8.86
2023-04-14T07:06:07.070Z,8.75
2023-04-14T07:08:35.430Z,9.36
2023-04-14T07:11:04.384Z,9.77
2023-04-14T07:13:31.705Z,9.75
2023-04-14T07:15:59.447Z,10.10
2023-04-14T07:18:26.140Z,10.68
2023-04-14T07:20:54.291Z,11.10
2023-04-14T07:23:22.254Z,11.46
2023-04-14T07:25:53.717Z,11.41
2023-04-14T07:28:21.526Z,11.88
2023-04-14T07:30:48.671Z,10.59
2023-04-14T07:33:19.252Z,10.92
2023-04-14T07:35:58.632Z,10.28
2023-04-14T07:38:29.488Z,10.89
2023-04-14T07:40:56.438Z,12.53
2023-04-14T07:43:24.106Z,12.80
2023-04-14T07:45:52.811Z,13.03
2023-04-14T07:48:21.634Z,13.52
2023-04-14T07:50:50.098Z,13.51
2023-04-14T07:53:16.894Z,13.50
2023-04-14T07:55:43.773Z,14.35
2023-04-14T07:58:15.355Z,14.17
2023-04-14T08:00:42.774Z,14.61
2023-04-14T08:03:10.284Z,14.71
2023-04-14T08:05:37.940Z,15.03
2023-04-14T08:08:04.973Z,14.93
2023-04-14T08:10:31.742Z,14.84
2023-04-14T08:12:58.450Z,14.88
2023-04-14T08:15:25.233Z,15.40
2023-04-14T08:17:54.749Z,15.66
2023-04-14T08:20:21.637Z,15.70
2023-04-14T08:22:48.487Z,14.72
2023-04-14T08:25:15.390Z,13.74
2023-04-14T08:27:42.100Z,15.25
2023-04-14T08:30:10.326Z,15.80
2023-04-14T08:32:38.177Z,15.83
2023-04-14T08:35:37.872Z,14.89
2023-04-14T08:37:52.190Z,16.07
2023-04-14T08:40:21.985Z,16.63
2023-04-14T08:42:48.654Z,16.95
2023-04-14T08:45:15.789Z,16.26
2023-04-14T08:47:44.966Z,15.09
2023-04-14T08:50:18.734Z,15.41
2023-04-14T08:52:47.233Z,14.23
2023-04-14T08:55:15.736Z,14.95
2023-04-14T08:57:44.277Z,14.68
2023-04-14T09:00:11.489Z,14.37
2023-04-14T09:02:40.877Z,14.84
2023-04-14T09:05:08.931Z,14.15
2023-04-14T09:07:36.578Z,13.49
2023-04-14T09:10:04.031Z,15.97
2023-04-14T09:12:30.802Z,15.99
2023-04-14T09:14:59.515Z,16.76
2023-04-14T09:17:28.407Z,16.03
2023-04-14T09:20:34.707Z,16.28
2023-04-14T09:22:42.110Z,15.64
2023-04-14T09:25:10.786Z,16.94
2023-04-14T09:27:38.075Z,17.26
2023-04-14T09:30:06.094Z,17.26
2023-04-14T09:32:32.911Z,17.79
2023-04-14T09:34:59.866Z,17.93
2023-04-14T09:37:26.623Z,17.31
2023-04-14T09:39:55.542Z,16.75
2023-04-14T09:42:37.625Z,17.66
2023-04-14T09:45:05.640Z,15.72
2023-04-14T09:47:32.587Z,15.36
2023-04-14T09:50:04.166Z,17.63
2023-04-14T09:52:38.703Z,15.18
2023-04-14T09:55:08.293Z,16.69
2023-04-14T09:57:36.142Z,17.09
2023-04-14T10:00:05.695Z,16.59
2023-04-14T10:02:48.542Z,15.74
2023-04-14T10:05:16.003Z,17.62
2023-04-14T10:07:42.761Z,17.69
2023-04-14T10:10:13.866Z,17.90
2023-04-14T10:12:44.562Z,18.22
2023-04-14T10:15:13.022Z,18.43
2023-04-14T10:17:39.863Z,18.23
2023-04-14T10:20:08.082Z,18.58
2023-04-14T10:22:35.107Z,17.33
2023-04-14T10:25:02.138Z,15.91
2023-04-14T10:27:30.862Z,15.74
2023-04-14T10:29:58.380Z,16.05
2023-04-14T10:32:28.355Z,17.31
2023-04-14T10:35:05.424Z,16.48
2023-04-14T10:37:35.935Z,14.25
2023-04-14T10:40:05.658Z,13.69
2023-04-14T10:42:52.270Z,16.17
2023-04-14T10:45:19.275Z,16.14
2023-04-14T10:47:46.445Z,17.12
2023-04-14T10:50:20.059Z,14.71
2023-04-14T10:52:56.361Z,14.69
2023-04-14T10:55:28.179Z,14.40
2023-04-14T10:58:06.622Z,16.18
2023-04-14T11:00:38.810Z,16.65
2023-04-14T11:03:10.798Z,14.88
2023-04-14T11:05:45.648Z,15.53
2023-04-14T11:08:29.139Z,15.52
2023-04-14T11:11:04.408Z,14.32
2023-04-14T11:13:33.132Z,15.65
2023-04-14T11:16:04.786Z,14.34
2023-04-14T11:18:37.893Z,13.41
2023-04-14T11:21:06.809Z,15.01
2023-04-14T11:23:37.877Z,15.74
2023-04-14T11:26:09.067Z,15.83
2023-04-14T11:28:41.711Z,16.45
2023-04-14T11:31:12.192Z,15.49
2023-04-14T11:33:41.994Z,14.15
2023-04-14T11:36:11.325Z,13.47
2023-04-14T11:38:40.918Z,14.10
2023-04-14T11:41:08.771Z,14.09
2023-04-14T11:43:37.695Z,14.66
2023-04-14T11:46:06.323Z,14.67
2023-04-14T11:48:33.060Z,14.59
2023-04-14T11:51:03.918Z,13.60
2023-04-14T11:53:31.295Z,14.47
2023-04-14T11:55:58.199Z,13.56
2023-04-14T11:58:26.771Z,13.39
2023-04-14T12:00:56.321Z,13.52
2023-04-14T12:03:34.733Z,13.90
2023-04-14T12:06:03.601Z,13.23
2023-04-14T12:08:31.578Z,13.08
2023-04-14T12:10:59.018Z,13.74
2023-04-14T12:13:27.248Z,13.59
2023-04-14T12:15:54.573Z,13.70
2023-04-14T12:18:21.969Z,14.46
2023-04-14T12:20:53.769Z,14.36
2023-04-14T12:23:20.569Z,14.34
2023-04-14T12:25:51.672Z,14.39
2023-04-14T12:28:27.483Z,14.53
2023-04-14T12:30:57.088Z,13.77
2023-04-14T12:33:24.311Z,13.77
2023-04-14T12:35:51.703Z,13.70
2023-04-14T12:38:18.451Z,14.12
2023-04-14T12:40:47.922Z,14.19
2023-04-14T12:43:16.524Z,14.20
2023-04-14T12:45:48.833Z,14.26
2023-04-14T12:48:17.334Z,13.82
2023-04-14T12:50:44.801Z,13.91
2023-04-14T12:53:23.962Z,14.01
2023-04-14T12:56:14.290Z,14.06
2023-04-14T12:58:43.046Z,13.83
2023-04-14T13:01:11.759Z,13.57
2023-04-14T13:03:39.175Z,13.43
2023-04-14T13:06:06.315Z,13.62
2023-04-14T13:08:33.002Z,14.24
2023-04-14T13:11:00.381Z,15.04
2023-04-14T13:13:27.843Z,15.20
2023-04-14T13:16:13.519Z,14.08
2023-04-14T13:18:41.841Z,14.67
2023-04-14T13:21:08.601Z,14.76
2023-04-14T13:23:35.455Z,15.06
2023-04-14T13:26:02.267Z,15.66
2023-04-14T13:28:29.315Z,15.48
2023-04-14T13:30:57.643Z,15.05
2023-04-14T13:33:25.646Z,15.88
2023-04-14T13:35:53.641Z,16.61
2023-04-14T13:38:20.318Z,15.50
2023-04-14T13:40:48.258Z,15.32
2023-04-14T13:43:17.372Z,15.20
2023-04-14T13:45:44.366Z,14.88
2023-04-14T13:48:11.116Z,14.84
2023-04-14T13:50:37.819Z,15.28
2023-04-14T13:53:04.538Z,14.94
2023-04-14T13:55:31.557Z,15.95
2023-04-14T13:57:58.298Z,16.02
2023-04-14T14:00:25.176Z,15.28
2023-04-14T14:02:52.296Z,16.42
2023-04-14T14:05:19.062Z,15.21
2023-04-14T14:07:45.841Z,15.28
2023-04-14T14:10:12.676Z,15.42
2023-04-14T14:12:39.375Z,15.71
2023-04-14T14:15:06.577Z,15.53
2023-04-14T14:17:33.336Z,15.85
2023-04-14T14:20:00.111Z,15.14
2023-04-14T14:22:26.968Z,14.80
2023-04-14T14:25:01.045Z,15.48
2023-04-14T14:27:38.065Z,15.46
2023-04-14T14:30:05.568Z,15.75
2023-04-14T14:32:33.131Z,15.25
2023-04-14T14:34:59.855Z,15.68
2023-04-14T14:37:26.605Z,14.94
2023-04-14T14:39:54.145Z,15.26
2023-04-14T14:42:20.893Z,16.62
2023-04-14T14:44:47.624Z,16.80
2023-04-14T14:47:14.434Z,16.48
2023-04-14T14:49:48.954Z,16.17
2023-04-14T14:52:23.723Z,15.84
2023-04-14T14:54:50.551Z,15.31
2023-04-14T14:57:19.687Z,15.28
2023-04-14T14:59:46.816Z,16.05
2023-04-14T15:02:13.699Z,15.46
2023-04-14T15:04:40.644Z,15.08
2023-04-14T15:07:07.770Z,15.24
2023-04-14T15:09:34.403Z,15.65
2023-04-14T15:12:01.213Z,17.17
2023-04-14T15:14:27.956Z,16.15
2023-04-14T15:16:54.690Z,17.49
2023-04-14T15:19:21.388Z,16.81
2023-04-14T15:21:48.086Z,16.26
2023-04-14T15:24:15.003Z,16.90
2023-04-14T15:26:41.670Z,17.53
2023-04-14T15:29:08.363Z,17.45
2023-04-14T15:31:35.220Z,16.55
2023-04-14T15:34:02.508Z,15.78
2023-04-14T15:36:29.868Z,16.03
2023-04-14T15:38:56.606Z,16.05
2023-04-14T15:41:23.457Z,16.21
2023-04-14T15:43:50.404Z,16.02
2023-04-14T15:46:17.291Z,16.85
2023-04-14T15:48:43.970Z,16.33
2023-04-14T15:51:11.558Z,16.33
2023-04-14T15:53:38.445Z,16.08
2023-04-14T15:56:05.366Z,15.66
2023-04-14T15:58:32.084Z,15.95
2023-04-14T16:00:58.816Z,15.83
2023-04-14T16:03:25.809Z,16.25
2023-04-14T16:06:02.288Z,16.41
2023-04-14T16:08:29.245Z,15.50
2023-04-14T16:10:55.941Z,15.18
2023-04-14T16:13:22.611Z,14.95
2023-04-14T16:15:49.322Z,15.19
2023-04-14T16:18:16.242Z,14.67
2023-04-14T16:20:42.936Z,14.41
2023-04-14T16:23:09.560Z,14.46
2023-04-14T16:25:36.958Z,14.50
2023-04-14T16:28:03.698Z,14.46
2023-04-14T16:30:31.760Z,14.46
2023-04-14T16:32:58.967Z,14.07
2023-04-14T16:35:26.113Z,13.95
2023-04-14T16:37:53.404Z,13.84
2023-04-14T16:40:20.342Z,14.14
2023-04-14T16:42:47.460Z,13.97
2023-04-14T16:45:14.223Z,13.68
2023-04-14T16:47:41.405Z,13.54
2023-04-14T16:50:08.753Z,13.55
2023-04-14T16:52:35.842Z,13.62
2023-04-14T16:55:02.577Z,13.64
2023-04-14T16:57:29.359Z,13.45
2023-04-14T16:59:56.038Z,13.50
2023-04-14T17:02:22.913Z,13.21
2023-04-14T17:04:49.906Z,13.16
2023-04-14T17:07:16.727Z,13.23
2023-04-14T17:09:43.441Z,13.13
2023-04-14T17:12:10.288Z,13.09
2023-04-14T17:14:37.312Z,13.10
2023-04-14T17:17:04.289Z,13.06
2023-04-14T17:19:35.749Z,12.93
2023-04-14T17:22:02.823Z,12.89
2023-04-14T17:24:30.530Z,12.75
2023-04-14T17:26:57.459Z,12.66
2023-04-14T17:29:24.458Z,12.68
2023-04-14T17:31:51.436Z,12.55
2023-04-14T17:34:19.448Z,12.42
2023-04-14T17:36:46.702Z,12.39
2023-04-14T17:39:13.860Z,12.41
2023-04-14T17:41:40.673Z,12.26
2023-04-14T17:44:07.470Z,12.18
2023-04-14T17:46:34.671Z,11.92
2023-04-14T17:49:04.364Z,11.78
2023-04-14T17:51:31.741Z,11.68
2023-04-14T17:53:59.066Z,11.67
2023-04-14T17:56:26.210Z,11.61
2023-04-14T17:58:53.293Z,11.51
2023-04-14T18:01:20.116Z,11.58
2023-04-14T18:03:47.137Z,11.47
2023-04-14T18:06:13.965Z,11.53
2023-04-14T18:08:41.443Z,11.17
2023-04-14T18:11:10.054Z,11.26
2023-04-14T18:13:36.988Z,11.22
2023-04-14T18:16:04.585Z,10.97
2023-04-14T18:18:31.577Z,10.91
2023-04-14T18:20:58.319Z,10.74
2023-04-14T18:23:25.028Z,10.68
2023-04-14T18:28:31.977Z,10.50
2023-04-14T18:30:59.560Z,10.44
2023-04-14T18:33:27.625Z,10.33
2023-04-14T18:35:56.979Z,10.23
2023-04-14T18:38:25.095Z,10.07
2023-04-14T18:40:52.494Z,10.09
2023-04-14T18:43:19.489Z,9.99
2023-04-14T18:45:49.742Z,9.88
2023-04-14T18:48:17.211Z,9.86
2023-04-14T18:50:44.736Z,9.87
2023-04-14T18:53:12.230Z,9.79
2023-04-14T18:55:45.143Z,9.71
2023-04-14T18:58:13.397Z,9.62
2023-04-14T19:00:40.891Z,9.68
2023-04-14T19:03:08.931Z,9.55
2023-04-14T19:05:37.121Z,9.51
2023-04-14T19:08:05.067Z,9.47
2023-04-14T19:10:34.843Z,9.43
2023-04-14T19:13:01.611Z,9.31
2023-04-14T19:15:28.651Z,9.31
2023-04-14T19:17:55.997Z,9.28
2023-04-14T19:20:22.895Z,9.20
2023-04-14T19:22:49.968Z,9.15
2023-04-14T19:25:17.099Z,9.11
2023-04-14T19:27:44.026Z,9.01
2023-04-14T19:30:12.380Z,8.97
2023-04-14T19:32:39.476Z,8.85
2023-04-14T19:35:07.845Z,8.71
2023-04-14T19:37:35.492Z,8.55
2023-04-14T19:40:06.309Z,8.54
2023-04-14T19:42:33.786Z,8.52
2023-04-14T19:45:01.316Z,8.49
2023-04-14T19:47:28.558Z,8.47
2023-04-14T19:49:55.470Z,8.40
2023-04-14T19:52:22.585Z,8.41
2023-04-14T19:54:50.005Z,8.36
2023-04-14T19:57:17.091Z,8.41
2023-04-14T19:59:44.491Z,8.42
2023-04-14T20:02:13.488Z,8.36
2023-04-14T20:04:40.716Z,8.32
2023-04-14T20:07:07.829Z,8.29
2023-04-14T20:09:34.976Z,8.20
2023-04-14T20:12:04.872Z,8.19
2023-04-14T20:14:31.981Z,8.16
2023-04-14T20:16:59.652Z,8.21
2023-04-14T20:19:26.390Z,8.15
2023-04-14T20:21:53.055Z,8.06
2023-04-14T20:24:20.231Z,8.01
2023-04-14T20:26:46.937Z,7.88
2023-04-14T20:29:13.832Z,7.79
2023-04-14T20:31:41.789Z,7.79
2023-04-14T20:34:09.121Z,7.85
2023-04-14T20:36:36.774Z,7.87
2023-04-14T20:39:06.047Z,7.79
2023-04-14T20:41:34.089Z,7.68
2023-04-14T20:44:01.530Z,7.62
2023-04-14T20:46:29.046Z,7.56
2023-04-14T20:48:56.830Z,7.51
2023-04-14T20:51:23.814Z,7.60
2023-04-14T20:53:50.933Z,7.55
2023-04-14T20:56:17.926Z,7.58
2023-04-14T20:58:45.746Z,7.49
2023-04-14T21:01:12.706Z,7.44
2023-04-14T21:03:39.746Z,7.27
2023-04-14T21:06:06.807Z,7.17
2023-04-14T21:08:33.761Z,7.21
2023-04-14T21:11:14.515Z,7.20
2023-04-14T21:15:29.029Z,7.20
2023-04-14T21:16:31.007Z,7.23
2023-04-14T21:18:57.684Z,7.16
2023-04-14T21:21:24.610Z,7.03
2023-04-14T21:23:51.516Z,7.03
2023-04-14T21:26:18.683Z,7.10
2023-04-14T21:28:45.896Z,7.16
2023-04-14T21:31:12.692Z,6.86
2023-04-14T21:33:41.976Z,6.76
2023-04-14T21:36:12.013Z,6.78
2023-04-14T21:38:39.379Z,6.67
2023-04-14T21:41:08.218Z,6.65
2023-04-14T21:43:35.253Z,6.75
2023-04-14T21:46:02.081Z,6.73
2023-04-14T21:48:29.236Z,6.82
2023-04-14T21:50:56.335Z,6.85
2023-04-14T21:53:23.636Z,6.88
2023-04-14T21:55:58.764Z,6.87
2023-04-14T21:58:37.424Z,6.87
2023-04-14T22:01:04.633Z,6.77
2023-04-14T22:03:32.740Z,6.71
2023-04-14T22:06:00.042Z,6.74
2023-04-14T22:08:26.738Z,6.80
2023-04-14T22:10:53.603Z,6.76
2023-04-14T22:13:20.359Z,6.75
2023-04-14T22:15:47.148Z,6.72
2023-04-14T22:18:13.968Z,6.69
2023-04-14T22:20:40.712Z,6.53
2023-04-14T22:23:07.514Z,6.39
2023-04-14T22:25:34.944Z,6.26
2023-04-14T22:28:01.859Z,6.10
2023-04-14T22:30:28.824Z,6.15
2023-04-14T22:32:56.247Z,6.12
2023-04-14T22:35:23.280Z,6.20
2023-04-14T22:37:51.966Z,6.15
2023-04-14T22:40:18.651Z,6.09
2023-04-14T22:42:45.622Z,5.99
2023-04-14T22:45:12.455Z,5.95
2023-04-14T22:47:39.192Z,5.90
2023-04-14T22:50:07.198Z,5.74
2023-04-14T22:52:33.925Z,5.68
2023-04-14T22:55:00.820Z,5.60
2023-04-14T22:57:27.831Z,5.41
2023-04-14T22:59:54.684Z,5.39
2023-04-14T23:02:22.197Z,5.41
2023-04-14T23:04:49.186Z,5.39
2023-04-14T23:07:16.359Z,5.30
2023-04-14T23:09:43.133Z,5.20
2023-04-14T23:12:10.493Z,5.23
2023-04-14T23:14:37.206Z,5.25
2023-04-14T23:17:04.490Z,5.26
2023-04-14T23:19:33.734Z,5.23
2023-04-14T23:22:00.533Z,5.15
2023-04-14T23:24:27.367Z,4.98
2023-04-14T23:26:54.230Z,5.05
2023-04-14T23:29:21.055Z,4.99
2023-04-14T23:31:47.799Z,5.04
2023-04-14T23:34:14.506Z,5.00
2023-04-14T23:36:41.871Z,4.88
2023-04-14T23:39:08.659Z,4.85
2023-04-14T23:41:35.624Z,4.79
2023-04-14T23:44:02.378Z,4.65
2023-04-14T23:46:29.300Z,4.55
2023-04-14T23:48:56.621Z,4.61
2023-04-14T23:51:24.142Z,4.81
2023-04-14T23:53:50.920Z,4.76
2023-04-14T23:56:17.884Z,4.81
2023-04-14T23:58:44.734Z,4.75
